CheckWX is a tool to help pilots better visualize weather data.  It is not intended as a substitute for an official pre-flight weather briefing.

09:43:43 UTC

KLCH METAR
Lake Charles Regional Airport
Lake Charles, Louisiana, USA
Current

10 mins ago

KLCH 220934Z AUTO 16009KT 9SM SCT016 BKN023 OVC029 26/23 A2983 RMK AO2 T02610233
Observed
May-22 @ 09:34 UTC
Wind
  • 160° at 9 KTS
Visibility
9 SM
Flight Rules
MVFR
Cloud Levels
  • Scattered at 1,600' AGL
  • Broken at 2,300' AGL
  • Overcast at 2,900' AGL
Temperature
26°C / 79°F
Dewpoint
23°C / 73°F
Humidity
84%
Altimeter
29.83" Hg
Pressure
1010.12 hPa
Previous

36 mins ago

KLCH 220908Z AUTO 16008KT 9SM BKN017 OVC029 26/23 A2982 RMK AO2 T02610233
Observed
May-22 @ 09:08 UTC
Wind
  • 160° at 8 KTS
Visibility
9 SM
Flight Rules
MVFR
Cloud Levels
  • Broken at 1,700' AGL
  • Overcast at 2,900' AGL
Temperature
26°C / 79°F
Dewpoint
23°C / 73°F
Humidity
84%
Altimeter
29.82" Hg
Pressure
1009.82 hPa
Previous

51 mins ago

KLCH 220853Z AUTO 16008KT 9SM SCT016 BKN022 OVC029 26/23 A2982 RMK AO2 SLP104 T02610233 51004
Observed
May-22 @ 08:53 UTC
Wind
  • 160° at 8 KTS
Visibility
9 SM
Flight Rules
MVFR
Cloud Levels
  • Scattered at 1,600' AGL
  • Broken at 2,200' AGL
  • Overcast at 2,900' AGL
Temperature
26°C / 79°F
Dewpoint
23°C / 73°F
Humidity
84%
Altimeter
29.82" Hg
Pressure
1009.82 hPa